Sea Sprinter — 9HA2243 — position and weather

sailwx.info

Track history (hours):
 
Tides and Currents Weather Stations Pressure Air Temp Water Temp Dewpoint Dewpoint Depression Visibility Wind Speed Wind Dir Waves Ship Positions

Sea Sprinter

Last reported at 2018-May-22 18:13 UTC. Time now 2018-May-25 09:12 UTC.
Position N 44°49' E 036°25'.

Length 128 m; draft 4.6 m.

Type: Ship. MMSI: 229938000.

Date/timePositionNaut miles runAvg speedWind from/ knotsBaromVisibWave heightAir tempDewpointWater temp
2018-May-22 18:13N 44°49' E 036°25'2 8.3
2018-May-22 18:00N 44°50' E 036°27'4 8.8
2018-May-22 17:30N 44°54' E 036°28'4 8.9
2018-May-22 17:00N 44°59' E 036°29'4 8.7
2018-May-22 16:30N 45°03' E 036°29'5 8.3
2018-May-22 15:53N 45°08' E 036°29'4 8.1
2018-May-22 15:27N 45°12' E 036°28'4 8.2
2018-May-22 15:00N 45°15' E 036°28'4 7.3
2018-May-22 14:30N 45°18' E 036°30'4 9.0
2018-May-22 14:00N 45°20' E 036°36'4 7.3
2018-May-22 13:30N 45°23' E 036°40'3 5.6
2018-May-22 13:00N 45°25' E 036°41'3 5.4
2018-May-22 12:30N 45°28' E 036°43'3 5.5
2018-May-22 12:00N 45°30' E 036°44'4 7.6
2018-May-22 11:30N 45°34' E 036°45'5 8.5
2018-May-22 10:53N 45°39' E 036°48'3 8.0
2018-May-22 10:30N 45°42' E 036°49'20 7.5
2018-May-22 07:49N 46°01' E 037°00'  
2018-May-18 11:19N 45°33' E 036°47'5 9.1
2018-May-18 10:49N 45°29' E 036°44'3 9.1
2018-May-18 10:30N 45°27' E 036°42'4 8.2
2018-May-18 10:00N 45°23' E 036°40'4 7.1
2018-May-18 09:30N 45°20' E 036°37'5 9.3
2018-May-18 08:59N 45°18' E 036°30'18 8.3
2018-May-18 06:47N 45°00' E 036°31'3 8.6
2018-May-18 06:30N 44°58' E 036°31'4 8.6
2018-May-18 06:00N 44°54' E 036°31'4 8.6
2018-May-18 05:30N 44°50' E 036°28'6 8.6
2018-May-18 04:51N 44°45' E 036°23'3 8.5
2018-May-18 04:30N 44°43' E 036°20'4 8.4
2018-May-18 04:00N 44°41' E 036°15'4 8.3
2018-May-18 03:29N 44°39' E 036°10'4 8.4
2018-May-18 03:00N 44°36' E 036°05'4 8.2
2018-May-18 02:30N 44°34' E 036°00'7 8.3
2018-May-18 01:36N 44°30' E 035°52'1 8.4
2018-May-18 01:28N 44°30' E 035°50'4 8.4
2018-May-18 01:00N 44°27' E 035°46'10 8.5
2018-May-17 23:51N 44°22' E 035°34'4 8.8
2018-May-17 23:25N 44°20' E 035°29'4 8.8
2018-May-17 23:00N 44°18' E 035°25'4 8.5
2018-May-17 22:30N 44°16' E 035°20'4 8.3
2018-May-17 22:00N 44°13' E 035°16'4 8.3
2018-May-17 21:30N 44°11' E 035°11'4 8.3
2018-May-17 20:59N 44°09' E 035°06'10 8.5
2018-May-17 19:48N 44°03' E 034°54'4 8.5
2018-May-17 19:21N 44°01' E 034°50'3 8.4
2018-May-17 19:00N 43°59' E 034°47'4 8.5
2018-May-17 18:30N 43°57' E 034°42'4 8.7
2018-May-17 18:00N 43°54' E 034°37'4 8.8
2018-May-17 17:30N 43°52' E 034°32'4 9.0
2018-May-17 17:00N 43°49' E 034°27'4 9.0
2018-May-17 16:30N 43°47' E 034°21'4 8.7
2018-May-17 16:00N 43°44' E 034°16'4 8.6
2018-May-17 15:30N 43°42' E 034°11'7 8.3
2018-May-17 14:37N 43°39' E 034°02'1 8.1
2018-May-17 14:28N 43°38' E 034°01'6 8.0
2018-May-17 13:41N 43°35' E 033°53'2 7.8
2018-May-17 13:27N 43°35' E 033°51'3 7.7
2018-May-17 13:00N 43°33' E 033°47'32 7.3
2018-May-17 08:42N 43°15' E 033°11'2 6.7
2018-May-17 08:27N 43°14' E 033°09'3 6.7
2018-May-17 08:00N 43°12' E 033°06'3 6.8
2018-May-17 07:30N 43°10' E 033°02'4 6.9
2018-May-17 06:59N 43°08' E 032°58'9 7.1
2018-May-17 05:48N 43°03' E 032°49'  
Track history (hours):
 
Tides and Currents Weather Stations Pressure Air Temp Water Temp Dewpoint Dewpoint Depression Visibility Wind Speed Wind Dir Waves Ship Positions

Sea Sprinter

Last reported at 2018-May-22 18:13 UTC. Time now 2018-May-25 09:12 UTC.
Position N 44°49' E 036°25'.

Length 128 m; draft 4.6 m.

Type: Ship. MMSI: 229938000.

Date/timePositionNaut miles runAvg speedWind from/ knotsBaromVisibWave heightAir tempDewpointWater temp
2018-May-22 18:13N 44°49' E 036°25'2 8.3
2018-May-22 18:00N 44°50' E 036°27'4 8.8
2018-May-22 17:30N 44°54' E 036°28'4 8.9
2018-May-22 17:00N 44°59' E 036°29'4 8.7
2018-May-22 16:30N 45°03' E 036°29'5 8.3
2018-May-22 15:53N 45°08' E 036°29'4 8.1
2018-May-22 15:27N 45°12' E 036°28'4 8.2
2018-May-22 15:00N 45°15' E 036°28'4 7.3
2018-May-22 14:30N 45°18' E 036°30'4 9.0
2018-May-22 14:00N 45°20' E 036°36'4 7.3
2018-May-22 13:30N 45°23' E 036°40'3 5.6
2018-May-22 13:00N 45°25' E 036°41'3 5.4
2018-May-22 12:30N 45°28' E 036°43'3 5.5
2018-May-22 12:00N 45°30' E 036°44'4 7.6
2018-May-22 11:30N 45°34' E 036°45'5 8.5
2018-May-22 10:53N 45°39' E 036°48'3 8.0
2018-May-22 10:30N 45°42' E 036°49'20 7.5
2018-May-22 07:49N 46°01' E 037°00'  
2018-May-18 11:19N 45°33' E 036°47'5 9.1
2018-May-18 10:49N 45°29' E 036°44'3 9.1
2018-May-18 10:30N 45°27' E 036°42'4 8.2
2018-May-18 10:00N 45°23' E 036°40'4 7.1
2018-May-18 09:30N 45°20' E 036°37'5 9.3
2018-May-18 08:59N 45°18' E 036°30'18 8.3
2018-May-18 06:47N 45°00' E 036°31'3 8.6
2018-May-18 06:30N 44°58' E 036°31'4 8.6
2018-May-18 06:00N 44°54' E 036°31'4 8.6
2018-May-18 05:30N 44°50' E 036°28'6 8.6
2018-May-18 04:51N 44°45' E 036°23'3 8.5
2018-May-18 04:30N 44°43' E 036°20'4 8.4
2018-May-18 04:00N 44°41' E 036°15'4 8.3
2018-May-18 03:29N 44°39' E 036°10'4 8.4
2018-May-18 03:00N 44°36' E 036°05'4 8.2
2018-May-18 02:30N 44°34' E 036°00'7 8.3
2018-May-18 01:36N 44°30' E 035°52'1 8.4
2018-May-18 01:28N 44°30' E 035°50'4 8.4
2018-May-18 01:00N 44°27' E 035°46'10 8.5
2018-May-17 23:51N 44°22' E 035°34'4 8.8
2018-May-17 23:25N 44°20' E 035°29'4 8.8
2018-May-17 23:00N 44°18' E 035°25'4 8.5
2018-May-17 22:30N 44°16' E 035°20'4 8.3
2018-May-17 22:00N 44°13' E 035°16'4 8.3
2018-May-17 21:30N 44°11' E 035°11'4 8.3
2018-May-17 20:59N 44°09' E 035°06'10 8.5
2018-May-17 19:48N 44°03' E 034°54'4 8.5
2018-May-17 19:21N 44°01' E 034°50'3 8.4
2018-May-17 19:00N 43°59' E 034°47'4 8.5
2018-May-17 18:30N 43°57' E 034°42'4 8.7
2018-May-17 18:00N 43°54' E 034°37'4 8.8
2018-May-17 17:30N 43°52' E 034°32'4 9.0
2018-May-17 17:00N 43°49' E 034°27'4 9.0
2018-May-17 16:30N 43°47' E 034°21'4 8.7
2018-May-17 16:00N 43°44' E 034°16'4 8.6
2018-May-17 15:30N 43°42' E 034°11'7 8.3
2018-May-17 14:37N 43°39' E 034°02'1 8.1
2018-May-17 14:28N 43°38' E 034°01'6 8.0
2018-May-17 13:41N 43°35' E 033°53'2 7.8
2018-May-17 13:27N 43°35' E 033°51'3 7.7
2018-May-17 13:00N 43°33' E 033°47'32 7.3
2018-May-17 08:42N 43°15' E 033°11'2 6.7
2018-May-17 08:27N 43°14' E 033°09'3 6.7
2018-May-17 08:00N 43°12' E 033°06'3 6.8
2018-May-17 07:30N 43°10' E 033°02'4 6.9
2018-May-17 06:59N 43°08' E 032°58'9 7.1
2018-May-17 05:48N 43°03' E 032°49'  

Dump ship's entire track history